High Shoals, NC

2:31 PM EDT on August 04, 2015 (GMT -0400)
S. Central Lincoln Co near High Shoals | | Change Station
CLOSE
Current Station
Personal Weather Station
Location: Lincolnton, NC
Elevation: 826 ft
Nearby Weather Stations

Elev 826 ft 35.43 °N, 81.22 °W | Updated 18 seconds ago

Partly Cloudy
Partly Cloudy
97.7 °F
Feels Like 101 °F
N
0.0
Wind Variable Wind from WNW
Gusts 0.0 mph

Today
High -- | Low -- °F
--% Chance of Precip.
Yesterday
High -- | Low -- °F
Precip. -- in
6:35 AM 8:25 PM
Waning Gibbous, 75% visible
Pressure 30.00 in
Visibility 10.0 miles
Clouds Scattered Clouds 6000 ft
Heat Index 101 °F
Dew Point 65 °F
Humidity 35%
Rainfall 0.00 in
Snow Depth Not available.
UV 9 out of 12
Pollen 5.90 out of 12
Air Quality Not available.
Flu Activity Not available.
METAR KIPJ 041815Z AUTO 00000KT 10SM SCT060 35/15 A3000 RMK AO2 T03460153

More Conditions Fewer Conditions

Pressure 30.00 in
Visibility 10.0 miles
Clouds Scattered Clouds 6000 ft
Heat Index 101 °F
Dew Point 65 °F
Humidity 35%
Rainfall 0.00 in
Snow Depth Not available.
UV 9 out of 12
Pollen 5.90 out of 12
Air Quality Not available.
Flu Activity Not available.
METAR KIPJ 041815Z AUTO 00000KT 10SM SCT060 35/15 A3000 RMK AO2 T03460153

More Conditions Fewer Conditions

10-Day Weather Forecast

×

Almanac

Astronomy

Aug. 04, 2015 Rise Set
Actual Time
Civil Twilight
Nautical Twilight
Astronomical Twilight
Moon
Length of Visible Light
Length of Day
Tomorrow will be .
, % of the Moon is Illuminated

Today's Extremes

State Highs State Lows

Community

WunderPhotos

Upload Photos

1,843,937 photos uploaded!

WunderBlogs® & News

Nearby

Air Quality

  Air Quality AQ Index Pollutant
Not available.

Snow Depth

Station Depth Elevation

Earthquake Activity

City Distance Mag. Time & Date
Minimum magnitude displayed is 2.5.

Coastal Water Temperatures

Place Temperature

Stations

Nearby Weather Stations

Station Location Temp. Windchill Dew Point Humidity Wind Precip. Elev Updated Type